sensor_id;sensor_type;location;lat;lon;timestamp;temperature;humidity
21811;DHT22;11067;48.788;9.208;2024-03-17T00:01:20;10.70;99.90
21811;DHT22;11067;48.788;9.208;2024-03-17T00:03:45;10.70;99.90
21811;DHT22;11067;48.788;9.208;2024-03-17T00:06:11;10.70;99.90
21811;DHT22;11067;48.788;9.208;2024-03-17T00:08:37;10.70;99.90
21811;DHT22;11067;48.788;9.208;2024-03-17T00:11:03;10.80;99.90
21811;DHT22;11067;48.788;9.208;2024-03-17T00:13:29;10.90;99.90
21811;DHT22;11067;48.788;9.208;2024-03-17T00:15:54;10.90;99.90
21811;DHT22;11067;48.788;9.208;2024-03-17T00:18:20;10.90;99.90
21811;DHT22;11067;48.788;9.208;2024-03-17T00:20:45;10.90;99.90
21811;DHT22;11067;48.788;9.208;2024-03-17T00:23:11;10.90;99.90
21811;DHT22;11067;48.788;9.208;2024-03-17T00:25:37;10.90;99.90
21811;DHT22;11067;48.788;9.208;2024-03-17T00:28:03;10.90;99.90
21811;DHT22;11067;48.788;9.208;2024-03-17T00:30:29;10.90;99.90
21811;DHT22;11067;48.788;9.208;2024-03-17T00:32:55;10.80;99.90
21811;DHT22;11067;48.788;9.208;2024-03-17T00:35:21;10.80;99.90
21811;DHT22;11067;48.788;9.208;2024-03-17T00:37:50;10.80;99.90
21811;DHT22;11067;48.788;9.208;2024-03-17T00:40:16;10.80;99.90
21811;DHT22;11067;48.788;9.208;2024-03-17T00:42:42;10.80;99.90
21811;DHT22;11067;48.788;9.208;2024-03-17T00:45:10;10.90;99.90
21811;DHT22;11067;48.788;9.208;2024-03-17T00:47:37;10.90;99.90
21811;DHT22;11067;48.788;9.208;2024-03-17T00:50:03;10.70;99.90
21811;DHT22;11067;48.788;9.208;2024-03-17T00:52:30;10.80;99.90
21811;DHT22;11067;48.788;9.208;2024-03-17T00:54:55;10.90;99.90
21811;DHT22;11067;48.788;9.208;2024-03-17T00:57:21;10.90;99.90
21811;DHT22;11067;48.788;9.208;2024-03-17T00:59:46;10.80;99.90
21811;DHT22;11067;48.788;9.208;2024-03-17T01:02:12;10.80;99.90
21811;DHT22;11067;48.788;9.208;2024-03-17T01:04:39;10.90;99.90
21811;DHT22;11067;48.788;9.208;2024-03-17T01:07:05;10.80;99.90
21811;DHT22;11067;48.788;9.208;2024-03-17T01:09:31;10.70;99.90
21811;DHT22;11067;48.788;9.208;2024-03-17T01:11:56;10.70;99.90
21811;DHT22;11067;48.788;9.208;2024-03-17T01:14:22;11.00;99.90
21811;DHT22;11067;48.788;9.208;2024-03-17T01:16:47;10.90;99.90
21811;DHT22;11067;48.788;9.208;2024-03-17T01:19:13;10.90;99.90
21811;DHT22;11067;48.788;9.208;2024-03-17T01:21:38;10.80;99.90
21811;DHT22;11067;48.788;9.208;2024-03-17T01:24:04;10.90;99.90
21811;DHT22;11067;48.788;9.208;2024-03-17T01:26:29;11.00;99.90
21811;DHT22;11067;48.788;9.208;2024-03-17T01:28:55;11.00;99.90
21811;DHT22;11067;48.788;9.208;2024-03-17T01:31:20;11.00;99.90
21811;DHT22;11067;48.788;9.208;2024-03-17T01:33:46;10.90;99.90
21811;DHT22;11067;48.788;9.208;2024-03-17T01:36:12;10.90;99.90
21811;DHT22;11067;48.788;9.208;2024-03-17T01:38:38;10.90;99.90
21811;DHT22;11067;48.788;9.208;2024-03-17T01:41:03;10.80;99.90
21811;DHT22;11067;48.788;9.208;2024-03-17T01:43:30;10.90;99.90
21811;DHT22;11067;48.788;9.208;2024-03-17T01:45:56;10.80;99.90
21811;DHT22;11067;48.788;9.208;2024-03-17T01:48:23;10.80;99.90
21811;DHT22;11067;48.788;9.208;2024-03-17T01:50:52;10.90;99.90
21811;DHT22;11067;48.788;9.208;2024-03-17T01:53:18;10.80;99.90
21811;DHT22;11067;48.788;9.208;2024-03-17T01:55:47;10.80;99.90
21811;DHT22;11067;48.788;9.208;2024-03-17T01:58:12;10.80;99.90
21811;DHT22;11067;48.788;9.208;2024-03-17T02:00:39;10.80;99.90
21811;DHT22;11067;48.788;9.208;2024-03-17T02:03:06;10.80;99.90
21811;DHT22;11067;48.788;9.208;2024-03-17T02:05:34;10.80;99.90
21811;DHT22;11067;48.788;9.208;2024-03-17T02:08:00;10.90;99.90
21811;DHT22;11067;48.788;9.208;2024-03-17T02:10:25;10.90;99.90
21811;DHT22;11067;48.788;9.208;2024-03-17T02:12:51;10.90;99.90
21811;DHT22;11067;48.788;9.208;2024-03-17T02:15:17;10.90;99.90
21811;DHT22;11067;48.788;9.208;2024-03-17T02:17:43;10.80;99.90
21811;DHT22;11067;48.788;9.208;2024-03-17T02:20:09;10.90;99.90
21811;DHT22;11067;48.788;9.208;2024-03-17T02:22:39;11.00;99.90
21811;DHT22;11067;48.788;9.208;2024-03-17T02:25:05;11.00;99.90
21811;DHT22;11067;48.788;9.208;2024-03-17T02:27:36;11.10;99.90
21811;DHT22;11067;48.788;9.208;2024-03-17T02:30:02;11.10;99.90
21811;DHT22;11067;48.788;9.208;2024-03-17T02:32:28;11.10;99.90
21811;DHT22;11067;48.788;9.208;2024-03-17T02:34:54;11.10;99.90
21811;DHT22;11067;48.788;9.208;2024-03-17T02:37:20;11.10;99.90
21811;DHT22;11067;48.788;9.208;2024-03-17T02:39:45;11.10;99.90
21811;DHT22;11067;48.788;9.208;2024-03-17T02:42:11;11.10;99.90
21811;DHT22;11067;48.788;9.208;2024-03-17T02:44:38;11.10;99.90
21811;DHT22;11067;48.788;9.208;2024-03-17T02:47:04;11.20;99.90
21811;DHT22;11067;48.788;9.208;2024-03-17T02:49:31;11.30;99.90
21811;DHT22;11067;48.788;9.208;2024-03-17T02:52:05;11.30;99.90
21811;DHT22;11067;48.788;9.208;2024-03-17T02:54:32;11.30;99.90
21811;DHT22;11067;48.788;9.208;2024-03-17T02:56:58;11.30;99.90
21811;DHT22;11067;48.788;9.208;2024-03-17T02:59:24;11.40;99.90
21811;DHT22;11067;48.788;9.208;2024-03-17T03:01:50;11.40;99.90
21811;DHT22;11067;48.788;9.208;2024-03-17T03:04:16;11.40;99.90
21811;DHT22;11067;48.788;9.208;2024-03-17T03:06:41;11.40;99.90
21811;DHT22;11067;48.788;9.208;2024-03-17T03:09:07;11.40;99.90
21811;DHT22;11067;48.788;9.208;2024-03-17T03:11:40;11.40;99.90
21811;DHT22;11067;48.788;9.208;2024-03-17T03:14:06;11.30;99.90
21811;DHT22;11067;48.788;9.208;2024-03-17T03:16:32;11.30;99.90
21811;DHT22;11067;48.788;9.208;2024-03-17T03:18:59;11.30;99.90
21811;DHT22;11067;48.788;9.208;2024-03-17T03:21:25;11.30;99.90
21811;DHT22;11067;48.788;9.208;2024-03-17T03:23:51;11.30;99.90
21811;DHT22;11067;48.788;9.208;2024-03-17T03:26:17;11.20;99.90
21811;DHT22;11067;48.788;9.208;2024-03-17T03:28:43;11.10;99.90
21811;DHT22;11067;48.788;9.208;2024-03-17T03:31:12;11.10;99.90
21811;DHT22;11067;48.788;9.208;2024-03-17T03:33:41;11.10;99.90
21811;DHT22;11067;48.788;9.208;2024-03-17T03:36:08;11.10;99.90
21811;DHT22;11067;48.788;9.208;2024-03-17T03:38:34;11.10;99.90
21811;DHT22;11067;48.788;9.208;2024-03-17T03:41:06;11.00;99.90
21811;DHT22;11067;48.788;9.208;2024-03-17T03:43:31;11.10;99.90
21811;DHT22;11067;48.788;9.208;2024-03-17T03:45:59;11.20;99.90
21811;DHT22;11067;48.788;9.208;2024-03-17T03:48:25;11.20;99.90
21811;DHT22;11067;48.788;9.208;2024-03-17T03:50:51;11.20;99.90
21811;DHT22;11067;48.788;9.208;2024-03-17T03:53:16;11.20;99.90
21811;DHT22;11067;48.788;9.208;2024-03-17T03:55:42;11.20;99.90
21811;DHT22;11067;48.788;9.208;2024-03-17T03:58:07;11.30;99.90
21811;DHT22;11067;48.788;9.208;2024-03-17T04:00:33;11.30;99.90
21811;DHT22;11067;48.788;9.208;2024-03-17T04:02:59;11.20;99.90
21811;DHT22;11067;48.788;9.208;2024-03-17T04:05:27;11.30;99.90
21811;DHT22;11067;48.788;9.208;2024-03-17T04:07:53;11.30;99.90
21811;DHT22;11067;48.788;9.208;2024-03-17T04:10:19;11.40;99.90
21811;DHT22;11067;48.788;9.208;2024-03-17T04:12:46;11.40;99.90
21811;DHT22;11067;48.788;9.208;2024-03-17T04:15:11;11.40;99.90
21811;DHT22;11067;48.788;9.208;2024-03-17T04:17:37;11.50;99.90
21811;DHT22;11067;48.788;9.208;2024-03-17T04:20:04;11.50;99.90
21811;DHT22;11067;48.788;9.208;2024-03-17T04:22:33;11.50;99.90
21811;DHT22;11067;48.788;9.208;2024-03-17T04:24:59;11.50;99.90
21811;DHT22;11067;48.788;9.208;2024-03-17T04:27:26;11.50;99.90
21811;DHT22;11067;48.788;9.208;2024-03-17T04:29:58;11.60;99.90
21811;DHT22;11067;48.788;9.208;2024-03-17T04:32:24;11.60;99.90
21811;DHT22;11067;48.788;9.208;2024-03-17T04:34:50;11.70;99.90
21811;DHT22;11067;48.788;9.208;2024-03-17T04:37:16;11.70;99.90
21811;DHT22;11067;48.788;9.208;2024-03-17T04:39:43;11.70;99.90
21811;DHT22;11067;48.788;9.208;2024-03-17T04:42:10;11.70;99.90
21811;DHT22;11067;48.788;9.208;2024-03-17T04:44:36;11.60;99.90
21811;DHT22;11067;48.788;9.208;2024-03-17T04:47:02;11.70;99.90
21811;DHT22;11067;48.788;9.208;2024-03-17T04:49:42;11.50;99.90
21811;DHT22;11067;48.788;9.208;2024-03-17T04:52:10;11.50;99.90
21811;DHT22;11067;48.788;9.208;2024-03-17T04:54:36;11.50;99.90
21811;DHT22;11067;48.788;9.208;2024-03-17T04:57:02;11.60;99.90
21811;DHT22;11067;48.788;9.208;2024-03-17T04:59:28;11.50;99.90
21811;DHT22;11067;48.788;9.208;2024-03-17T05:01:53;11.50;99.90
21811;DHT22;11067;48.788;9.208;2024-03-17T05:04:19;11.50;99.90
21811;DHT22;11067;48.788;9.208;2024-03-17T05:06:45;11.50;99.90
21811;DHT22;11067;48.788;9.208;2024-03-17T05:09:12;11.40;99.90
21811;DHT22;11067;48.788;9.208;2024-03-17T05:11:39;11.50;99.90
21811;DHT22;11067;48.788;9.208;2024-03-17T05:14:04;11.40;99.90
21811;DHT22;11067;48.788;9.208;2024-03-17T05:16:30;11.50;99.90
21811;DHT22;11067;48.788;9.208;2024-03-17T05:18:56;11.40;99.90
21811;DHT22;11067;48.788;9.208;2024-03-17T05:21:22;11.40;99.90
21811;DHT22;11067;48.788;9.208;2024-03-17T05:23:49;11.30;99.90
21811;DHT22;11067;48.788;9.208;2024-03-17T05:26:14;11.30;99.90
21811;DHT22;11067;48.788;9.208;2024-03-17T05:28:40;11.30;99.90
21811;DHT22;11067;48.788;9.208;2024-03-17T05:31:06;11.40;99.90
21811;DHT22;11067;48.788;9.208;2024-03-17T05:33:31;11.40;99.90
21811;DHT22;11067;48.788;9.208;2024-03-17T05:35:58;11.40;99.90
21811;DHT22;11067;48.788;9.208;2024-03-17T05:38:26;11.50;99.90
21811;DHT22;11067;48.788;9.208;2024-03-17T05:40:56;11.50;99.90
21811;DHT22;11067;48.788;9.208;2024-03-17T05:43:23;11.50;99.90
21811;DHT22;11067;48.788;9.208;2024-03-17T05:45:53;11.50;99.90
21811;DHT22;11067;48.788;9.208;2024-03-17T05:48:18;11.50;99.90
21811;DHT22;11067;48.788;9.208;2024-03-17T05:50:44;11.60;99.90
21811;DHT22;11067;48.788;9.208;2024-03-17T05:53:10;11.60;99.90
21811;DHT22;11067;48.788;9.208;2024-03-17T05:55:36;11.70;99.90
21811;DHT22;11067;48.788;9.208;2024-03-17T05:58:02;11.60;99.90
21811;DHT22;11067;48.788;9.208;2024-03-17T06:00:28;11.60;99.90
21811;DHT22;11067;48.788;9.208;2024-03-17T06:02:53;11.50;99.90
21811;DHT22;11067;48.788;9.208;2024-03-17T06:05:19;11.50;99.90
21811;DHT22;11067;48.788;9.208;2024-03-17T06:07:44;11.50;99.90
21811;DHT22;11067;48.788;9.208;2024-03-17T06:10:12;11.50;99.90
21811;DHT22;11067;48.788;9.208;2024-03-17T06:12:37;11.50;99.90
21811;DHT22;11067;48.788;9.208;2024-03-17T06:15:03;11.50;99.90
21811;DHT22;11067;48.788;9.208;2024-03-17T06:17:29;11.50;99.90
21811;DHT22;11067;48.788;9.208;2024-03-17T06:19:55;11.50;99.90
21811;DHT22;11067;48.788;9.208;2024-03-17T06:22:25;11.50;99.90
21811;DHT22;11067;48.788;9.208;2024-03-17T06:24:51;11.50;99.90
21811;DHT22;11067;48.788;9.208;2024-03-17T06:27:16;11.70;99.90
21811;DHT22;11067;48.788;9.208;2024-03-17T06:29:42;11.70;99.90
21811;DHT22;11067;48.788;9.208;2024-03-17T06:32:08;11.80;99.90
21811;DHT22;11067;48.788;9.208;2024-03-17T06:34:33;11.80;99.90
21811;DHT22;11067;48.788;9.208;2024-03-17T06:36:59;11.90;99.90
21811;DHT22;11067;48.788;9.208;2024-03-17T06:39:28;12.00;99.90
21811;DHT22;11067;48.788;9.208;2024-03-17T06:41:54;12.00;99.90
21811;DHT22;11067;48.788;9.208;2024-03-17T06:44:19;12.00;99.90
21811;DHT22;11067;48.788;9.208;2024-03-17T06:46:49;12.00;99.90
21811;DHT22;11067;48.788;9.208;2024-03-17T06:49:15;12.00;99.90
21811;DHT22;11067;48.788;9.208;2024-03-17T06:51:40;12.00;99.90
21811;DHT22;11067;48.788;9.208;2024-03-17T06:54:06;12.00;99.90
21811;DHT22;11067;48.788;9.208;2024-03-17T06:56:33;12.20;99.90
21811;DHT22;11067;48.788;9.208;2024-03-17T06:58:59;12.40;99.90
21811;DHT22;11067;48.788;9.208;2024-03-17T07:01:24;12.40;99.90
21811;DHT22;11067;48.788;9.208;2024-03-17T07:03:50;12.60;99.90
21811;DHT22;11067;48.788;9.208;2024-03-17T07:06:15;12.60;99.90
21811;DHT22;11067;48.788;9.208;2024-03-17T07:08:41;12.80;99.90
21811;DHT22;11067;48.788;9.208;2024-03-17T07:11:07;13.10;99.90
21811;DHT22;11067;48.788;9.208;2024-03-17T07:13:34;13.30;99.90
21811;DHT22;11067;48.788;9.208;2024-03-17T07:16:01;13.70;99.90
21811;DHT22;11067;48.788;9.208;2024-03-17T07:18:28;13.80;99.90
21811;DHT22;11067;48.788;9.208;2024-03-17T07:20:57;13.80;99.90
21811;DHT22;11067;48.788;9.208;2024-03-17T07:23:23;13.70;99.90
21811;DHT22;11067;48.788;9.208;2024-03-17T07:25:58;14.00;99.90
21811;DHT22;11067;48.788;9.208;2024-03-17T07:28:25;14.00;99.90
21811;DHT22;11067;48.788;9.208;2024-03-17T07:30:52;14.00;99.90
21811;DHT22;11067;48.788;9.208;2024-03-17T07:33:18;14.10;99.90
21811;DHT22;11067;48.788;9.208;2024-03-17T07:35:50;14.10;99.90
21811;DHT22;11067;48.788;9.208;2024-03-17T07:38:16;14.10;99.90
21811;DHT22;11067;48.788;9.208;2024-03-17T07:40:42;13.90;99.90
21811;DHT22;11067;48.788;9.208;2024-03-17T07:43:08;13.70;99.90
21811;DHT22;11067;48.788;9.208;2024-03-17T07:45:33;13.60;99.90
21811;DHT22;11067;48.788;9.208;2024-03-17T07:47:59;13.40;99.90
21811;DHT22;11067;48.788;9.208;2024-03-17T07:50:24;13.10;99.90
21811;DHT22;11067;48.788;9.208;2024-03-17T07:52:50;12.80;99.90
21811;DHT22;11067;48.788;9.208;2024-03-17T07:55:16;12.70;99.90
21811;DHT22;11067;48.788;9.208;2024-03-17T07:57:41;12.70;99.90
21811;DHT22;11067;48.788;9.208;2024-03-17T08:00:07;12.50;99.90
21811;DHT22;11067;48.788;9.208;2024-03-17T08:02:47;12.50;99.90
21811;DHT22;11067;48.788;9.208;2024-03-17T08:05:13;12.40;99.90
21811;DHT22;11067;48.788;9.208;2024-03-17T08:07:39;12.50;99.90
21811;DHT22;11067;48.788;9.208;2024-03-17T08:10:05;12.50;99.90
21811;DHT22;11067;48.788;9.208;2024-03-17T08:12:31;12.10;99.90
21811;DHT22;11067;48.788;9.208;2024-03-17T08:14:56;11.90;99.90
21811;DHT22;11067;48.788;9.208;2024-03-17T08:17:22;12.10;99.90
21811;DHT22;11067;48.788;9.208;2024-03-17T08:19:47;11.80;99.90
21811;DHT22;11067;48.788;9.208;2024-03-17T08:22:13;11.30;99.90
21811;DHT22;11067;48.788;9.208;2024-03-17T08:24:40;11.00;99.90
21811;DHT22;11067;48.788;9.208;2024-03-17T08:27:05;10.60;99.90
21811;DHT22;11067;48.788;9.208;2024-03-17T08:29:31;11.10;99.90
21811;DHT22;11067;48.788;9.208;2024-03-17T08:31:58;10.90;99.90
21811;DHT22;11067;48.788;9.208;2024-03-17T08:34:24;11.00;99.90
21811;DHT22;11067;48.788;9.208;2024-03-17T08:36:49;10.60;99.90
21811;DHT22;11067;48.788;9.208;2024-03-17T08:39:15;10.50;99.90
21811;DHT22;11067;48.788;9.208;2024-03-17T08:41:41;10.60;99.90
21811;DHT22;11067;48.788;9.208;2024-03-17T08:44:06;10.70;99.90
21811;DHT22;11067;48.788;9.208;2024-03-17T08:46:32;10.90;99.90
21811;DHT22;11067;48.788;9.208;2024-03-17T08:48:58;11.00;99.90
21811;DHT22;11067;48.788;9.208;2024-03-17T08:51:23;11.30;99.90
21811;DHT22;11067;48.788;9.208;2024-03-17T08:53:49;11.40;99.90
21811;DHT22;11067;48.788;9.208;2024-03-17T08:56:15;11.50;99.90
21811;DHT22;11067;48.788;9.208;2024-03-17T08:58:40;11.60;99.90
21811;DHT22;11067;48.788;9.208;2024-03-17T09:01:07;11.30;99.90
21811;DHT22;11067;48.788;9.208;2024-03-17T09:03:33;11.20;99.90
21811;DHT22;11067;48.788;9.208;2024-03-17T09:05:59;11.60;99.90
21811;DHT22;11067;48.788;9.208;2024-03-17T09:08:25;11.50;99.90
21811;DHT22;11067;48.788;9.208;2024-03-17T09:10:53;11.40;99.90
21811;DHT22;11067;48.788;9.208;2024-03-17T09:13:23;11.50;99.90
21811;DHT22;11067;48.788;9.208;2024-03-17T09:18:22;12.10;99.90
21811;DHT22;11067;48.788;9.208;2024-03-17T09:21:02;11.90;99.90
21811;DHT22;11067;48.788;9.208;2024-03-17T09:23:28;12.00;99.90
21811;DHT22;11067;48.788;9.208;2024-03-17T09:26:00;12.00;99.90
21811;DHT22;11067;48.788;9.208;2024-03-17T09:28:26;11.90;99.90
21811;DHT22;11067;48.788;9.208;2024-03-17T09:30:53;12.10;99.90
21811;DHT22;11067;48.788;9.208;2024-03-17T09:33:20;12.20;99.90
21811;DHT22;11067;48.788;9.208;2024-03-17T09:35:56;12.10;99.90
21811;DHT22;11067;48.788;9.208;2024-03-17T09:38:22;12.10;99.90
21811;DHT22;11067;48.788;9.208;2024-03-17T09:40:48;12.20;99.90
21811;DHT22;11067;48.788;9.208;2024-03-17T09:43:21;12.60;99.90
21811;DHT22;11067;48.788;9.208;2024-03-17T09:45:48;12.80;99.90
21811;DHT22;11067;48.788;9.208;2024-03-17T09:48:15;12.70;99.90
21811;DHT22;11067;48.788;9.208;2024-03-17T09:53:17;12.30;99.90
21811;DHT22;11067;48.788;9.208;2024-03-17T09:55:47;12.70;99.90
21811;DHT22;11067;48.788;9.208;2024-03-17T09:58:16;12.50;70.80
21811;DHT22;11067;48.788;9.208;2024-03-17T10:00:46;12.40;75.10
21811;DHT22;11067;48.788;9.208;2024-03-17T10:03:12;12.50;19.40
21811;DHT22;11067;48.788;9.208;2024-03-17T10:05:38;12.50;17.90
21811;DHT22;11067;48.788;9.208;2024-03-17T10:08:04;13.00;28.00
21811;DHT22;11067;48.788;9.208;2024-03-17T10:10:30;13.10;18.50
21811;DHT22;11067;48.788;9.208;2024-03-17T10:12:55;12.90;20.80
21811;DHT22;11067;48.788;9.208;2024-03-17T10:15:21;12.90;24.50
21811;DHT22;11067;48.788;9.208;2024-03-17T10:17:47;13.20;36.50
21811;DHT22;11067;48.788;9.208;2024-03-17T10:20:14;13.20;33.50
21811;DHT22;11067;48.788;9.208;2024-03-17T10:23:03;13.20;12.50
21811;DHT22;11067;48.788;9.208;2024-03-17T10:25:30;13.10;4.50
21811;DHT22;11067;48.788;9.208;2024-03-17T10:27:56;13.10;1.20
21811;DHT22;11067;48.788;9.208;2024-03-17T10:30:23;13.20;21.80
21811;DHT22;11067;48.788;9.208;2024-03-17T10:32:56;13.00;34.60
21811;DHT22;11067;48.788;9.208;2024-03-17T10:35:30;13.40;31.90
21811;DHT22;11067;48.788;9.208;2024-03-17T10:37:58;13.30;20.50
21811;DHT22;11067;48.788;9.208;2024-03-17T10:40:25;13.60;22.40
21811;DHT22;11067;48.788;9.208;2024-03-17T10:42:51;13.30;28.30
21811;DHT22;11067;48.788;9.208;2024-03-17T10:45:17;13.50;30.50
21811;DHT22;11067;48.788;9.208;2024-03-17T10:47:48;13.40;32.20
21811;DHT22;11067;48.788;9.208;2024-03-17T10:50:22;13.50;23.60
21811;DHT22;11067;48.788;9.208;2024-03-17T10:52:50;13.90;22.60
21811;DHT22;11067;48.788;9.208;2024-03-17T10:55:26;13.70;13.60
21811;DHT22;11067;48.788;9.208;2024-03-17T10:57:53;13.50;23.60
21811;DHT22;11067;48.788;9.208;2024-03-17T11:00:20;13.70;32.00
21811;DHT22;11067;48.788;9.208;2024-03-17T11:02:51;14.20;16.90
21811;DHT22;11067;48.788;9.208;2024-03-17T11:07:46;14.10;5.10
21811;DHT22;11067;48.788;9.208;2024-03-17T11:10:26;14.20;12.50
21811;DHT22;11067;48.788;9.208;2024-03-17T11:13:00;13.80;14.60
21811;DHT22;11067;48.788;9.208;2024-03-17T11:18:28;14.40;10.90
21811;DHT22;11067;48.788;9.208;2024-03-17T11:21:24;14.50;1.40
21811;DHT22;11067;48.788;9.208;2024-03-17T11:24:00;14.80;2.50
21811;DHT22;11067;48.788;9.208;2024-03-17T11:26:31;14.50;1.60
21811;DHT22;11067;48.788;9.208;2024-03-17T11:28:57;14.70;5.00
21811;DHT22;11067;48.788;9.208;2024-03-17T11:31:41;14.30;7.30
21811;DHT22;11067;48.788;9.208;2024-03-17T11:34:34;14.30;5.50
21811;DHT22;11067;48.788;9.208;2024-03-17T11:37:01;14.50;3.10
21811;DHT22;11067;48.788;9.208;2024-03-17T11:42:15;14.60;4.90
21811;DHT22;11067;48.788;9.208;2024-03-17T11:44:56;14.40;6.30
21811;DHT22;11067;48.788;9.208;2024-03-17T11:47:21;14.10;17.10
21811;DHT22;11067;48.788;9.208;2024-03-17T11:49:47;14.20;27.50
21811;DHT22;11067;48.788;9.208;2024-03-17T11:52:16;14.20;29.40
21811;DHT22;11067;48.788;9.208;2024-03-17T11:54:43;14.10;24.30
21811;DHT22;11067;48.788;9.208;2024-03-17T11:57:11;14.20;23.00
21811;DHT22;11067;48.788;9.208;2024-03-17T11:59:38;14.40;21.60
21811;DHT22;11067;48.788;9.208;2024-03-17T12:02:30;14.30;19.70
21811;DHT22;11067;48.788;9.208;2024-03-17T12:05:01;14.40;20.30
21811;DHT22;11067;48.788;9.208;2024-03-17T12:07:27;14.30;15.00
21811;DHT22;11067;48.788;9.208;2024-03-17T12:09:55;14.20;18.10
21811;DHT22;11067;48.788;9.208;2024-03-17T12:12:24;14.10;18.50
21811;DHT22;11067;48.788;9.208;2024-03-17T12:14:50;14.30;19.50
21811;DHT22;11067;48.788;9.208;2024-03-17T12:17:24;14.40;16.90
21811;DHT22;11067;48.788;9.208;2024-03-17T12:19:50;14.40;15.10
21811;DHT22;11067;48.788;9.208;2024-03-17T12:22:20;14.10;18.50
21811;DHT22;11067;48.788;9.208;2024-03-17T12:24:51;14.10;17.60
21811;DHT22;11067;48.788;9.208;2024-03-17T12:27:19;14.40;14.00
21811;DHT22;11067;48.788;9.208;2024-03-17T12:29:45;14.10;13.10
21811;DHT22;11067;48.788;9.208;2024-03-17T12:34:43;13.80;15.40
21811;DHT22;11067;48.788;9.208;2024-03-17T12:37:15;14.20;13.20
21811;DHT22;11067;48.788;9.208;2024-03-17T12:39:41;14.20;10.60
21811;DHT22;11067;48.788;9.208;2024-03-17T12:42:11;14.50;9.70
21811;DHT22;11067;48.788;9.208;2024-03-17T12:44:47;14.70;7.60
21811;DHT22;11067;48.788;9.208;2024-03-17T12:47:18;14.80;2.80
21811;DHT22;11067;48.788;9.208;2024-03-17T12:49:48;15.10;1.00
21811;DHT22;11067;48.788;9.208;2024-03-17T12:52:18;14.80;1.00
21811;DHT22;11067;48.788;9.208;2024-03-17T12:54:45;14.50;1.00
21811;DHT22;11067;48.788;9.208;2024-03-17T12:57:20;14.70;2.30
21811;DHT22;11067;48.788;9.208;2024-03-17T13:00:17;14.90;2.30
21811;DHT22;11067;48.788;9.208;2024-03-17T13:03:00;14.80;1.00
21811;DHT22;11067;48.788;9.208;2024-03-17T13:05:25;14.80;1.00
21811;DHT22;11067;48.788;9.208;2024-03-17T13:07:52;14.90;1.00
21811;DHT22;11067;48.788;9.208;2024-03-17T13:10:20;15.20;1.00
21811;DHT22;11067;48.788;9.208;2024-03-17T13:12:47;15.10;1.00
21811;DHT22;11067;48.788;9.208;2024-03-17T13:15:16;14.60;1.00
21811;DHT22;11067;48.788;9.208;2024-03-17T13:17:43;14.60;1.00
21811;DHT22;11067;48.788;9.208;2024-03-17T13:20:17;14.80;1.00
21811;DHT22;11067;48.788;9.208;2024-03-17T13:22:46;14.70;1.00
21811;DHT22;11067;48.788;9.208;2024-03-17T13:25:19;14.60;1.00
21811;DHT22;11067;48.788;9.208;2024-03-17T13:27:49;14.60;1.00
21811;DHT22;11067;48.788;9.208;2024-03-17T13:30:16;14.60;1.00
21811;DHT22;11067;48.788;9.208;2024-03-17T13:32:42;14.70;1.00
21811;DHT22;11067;48.788;9.208;2024-03-17T13:35:18;14.60;1.00
21811;DHT22;11067;48.788;9.208;2024-03-17T13:37:47;14.60;1.00
21811;DHT22;11067;48.788;9.208;2024-03-17T13:40:23;14.80;1.00
21811;DHT22;11067;48.788;9.208;2024-03-17T13:42:50;15.00;1.00
21811;DHT22;11067;48.788;9.208;2024-03-17T13:45:17;14.90;1.00
21811;DHT22;11067;48.788;9.208;2024-03-17T13:48:01;15.20;1.00
21811;DHT22;11067;48.788;9.208;2024-03-17T13:50:27;14.90;1.00
21811;DHT22;11067;48.788;9.208;2024-03-17T13:52:52;15.00;1.00
21811;DHT22;11067;48.788;9.208;2024-03-17T13:55:22;15.50;1.00
21811;DHT22;11067;48.788;9.208;2024-03-17T13:58:00;14.80;1.00
21811;DHT22;11067;48.788;9.208;2024-03-17T14:00:28;14.80;1.00
21811;DHT22;11067;48.788;9.208;2024-03-17T14:02:54;14.90;1.00
21811;DHT22;11067;48.788;9.208;2024-03-17T14:05:22;15.00;1.00
21811;DHT22;11067;48.788;9.208;2024-03-17T14:07:48;14.70;1.00
21811;DHT22;11067;48.788;9.208;2024-03-17T14:10:16;14.60;1.00
21811;DHT22;11067;48.788;9.208;2024-03-17T14:12:42;14.60;1.00
21811;DHT22;11067;48.788;9.208;2024-03-17T14:15:09;14.70;1.00
21811;DHT22;11067;48.788;9.208;2024-03-17T14:17:40;14.80;1.00
21811;DHT22;11067;48.788;9.208;2024-03-17T14:20:07;15.30;1.00
21811;DHT22;11067;48.788;9.208;2024-03-17T14:22:36;15.40;1.00
21811;DHT22;11067;48.788;9.208;2024-03-17T14:25:05;15.30;1.00
21811;DHT22;11067;48.788;9.208;2024-03-17T14:27:31;15.00;1.00
21811;DHT22;11067;48.788;9.208;2024-03-17T14:29:57;14.80;1.00
21811;DHT22;11067;48.788;9.208;2024-03-17T14:32:23;15.00;1.00
21811;DHT22;11067;48.788;9.208;2024-03-17T14:34:48;15.30;1.00
21811;DHT22;11067;48.788;9.208;2024-03-17T14:37:14;15.60;1.00
21811;DHT22;11067;48.788;9.208;2024-03-17T14:39:40;15.30;1.00
21811;DHT22;11067;48.788;9.208;2024-03-17T14:42:06;15.10;1.00
21811;DHT22;11067;48.788;9.208;2024-03-17T14:44:34;15.20;1.00
21811;DHT22;11067;48.788;9.208;2024-03-17T14:47:01;15.20;1.00
21811;DHT22;11067;48.788;9.208;2024-03-17T14:49:26;15.00;1.00
21811;DHT22;11067;48.788;9.208;2024-03-17T14:51:52;14.70;1.00
21811;DHT22;11067;48.788;9.208;2024-03-17T14:54:17;15.00;1.00
21811;DHT22;11067;48.788;9.208;2024-03-17T14:56:44;15.00;1.00
21811;DHT22;11067;48.788;9.208;2024-03-17T14:59:09;15.10;1.00
21811;DHT22;11067;48.788;9.208;2024-03-17T15:01:35;15.10;1.00
21811;DHT22;11067;48.788;9.208;2024-03-17T15:04:00;15.20;1.00
21811;DHT22;11067;48.788;9.208;2024-03-17T15:06:26;15.40;1.00
21811;DHT22;11067;48.788;9.208;2024-03-17T15:08:52;15.30;1.00
21811;DHT22;11067;48.788;9.208;2024-03-17T15:11:18;15.30;1.00
21811;DHT22;11067;48.788;9.208;2024-03-17T15:13:44;15.20;1.00
21811;DHT22;11067;48.788;9.208;2024-03-17T15:16:10;15.00;1.00
21811;DHT22;11067;48.788;9.208;2024-03-17T15:18:37;14.90;1.00
21811;DHT22;11067;48.788;9.208;2024-03-17T15:21:03;14.90;1.00
21811;DHT22;11067;48.788;9.208;2024-03-17T15:24:09;15.00;1.00
21811;DHT22;11067;48.788;9.208;2024-03-17T15:26:33;15.20;1.00
21811;DHT22;11067;48.788;9.208;2024-03-17T15:28:59;14.80;1.00
21811;DHT22;11067;48.788;9.208;2024-03-17T15:31:31;14.60;1.00
21811;DHT22;11067;48.788;9.208;2024-03-17T15:33:56;14.90;1.90
21811;DHT22;11067;48.788;9.208;2024-03-17T15:36:22;14.80;1.00
21811;DHT22;11067;48.788;9.208;2024-03-17T15:38:50;14.50;1.00
21811;DHT22;11067;48.788;9.208;2024-03-17T15:41:16;14.50;2.30
21811;DHT22;11067;48.788;9.208;2024-03-17T15:43:41;14.70;3.20
21811;DHT22;11067;48.788;9.208;2024-03-17T15:46:14;14.90;1.00
21811;DHT22;11067;48.788;9.208;2024-03-17T15:48:40;14.80;1.00
21811;DHT22;11067;48.788;9.208;2024-03-17T15:51:06;14.60;1.00
21811;DHT22;11067;48.788;9.208;2024-03-17T15:53:32;14.60;1.30